sensor_id;sensor_type;location;lat;lon;timestamp;P1;durP1;ratioP1;P2;durP2;ratioP2
1991;SDS011;997;48.448;8.924;2023-11-21T00:00:14;4.33;;;2.30;;
1991;SDS011;997;48.448;8.924;2023-11-21T00:02:41;4.30;;;1.73;;
1991;SDS011;997;48.448;8.924;2023-11-21T00:05:10;2.30;;;1.90;;
1991;SDS011;997;48.448;8.924;2023-11-21T00:07:39;4.87;;;1.83;;
1991;SDS011;997;48.448;8.924;2023-11-21T00:10:06;2.80;;;1.50;;
1991;SDS011;997;48.448;8.924;2023-11-21T00:12:33;2.10;;;1.47;;
1991;SDS011;997;48.448;8.924;2023-11-21T00:14:59;4.53;;;1.70;;
1991;SDS011;997;48.448;8.924;2023-11-21T00:17:25;2.43;;;2.23;;
1991;SDS011;997;48.448;8.924;2023-11-21T00:19:51;2.77;;;1.87;;
1991;SDS011;997;48.448;8.924;2023-11-21T00:22:17;2.77;;;1.87;;
1991;SDS011;997;48.448;8.924;2023-11-21T00:24:43;5.87;;;3.47;;
1991;SDS011;997;48.448;8.924;2023-11-21T00:27:09;12.20;;;7.17;;
1991;SDS011;997;48.448;8.924;2023-11-21T00:29:35;10.43;;;7.90;;
1991;SDS011;997;48.448;8.924;2023-11-21T00:32:01;7.70;;;4.90;;
1991;SDS011;997;48.448;8.924;2023-11-21T00:34:27;4.70;;;3.80;;
1991;SDS011;997;48.448;8.924;2023-11-21T00:36:52;3.07;;;2.87;;
1991;SDS011;997;48.448;8.924;2023-11-21T00:39:18;3.47;;;1.67;;
1991;SDS011;997;48.448;8.924;2023-11-21T00:41:44;9.53;;;2.83;;
1991;SDS011;997;48.448;8.924;2023-11-21T00:44:13;3.47;;;2.20;;
1991;SDS011;997;48.448;8.924;2023-11-21T00:46:39;2.50;;;2.30;;
1991;SDS011;997;48.448;8.924;2023-11-21T00:49:04;5.17;;;4.00;;
1991;SDS011;997;48.448;8.924;2023-11-21T00:51:30;5.77;;;4.50;;
1991;SDS011;997;48.448;8.924;2023-11-21T00:53:56;4.03;;;3.50;;
1991;SDS011;997;48.448;8.924;2023-11-21T00:56:21;5.10;;;3.10;;
1991;SDS011;997;48.448;8.924;2023-11-21T00:58:47;3.60;;;3.30;;
1991;SDS011;997;48.448;8.924;2023-11-21T01:01:17;2.20;;;2.00;;
1991;SDS011;997;48.448;8.924;2023-11-21T01:03:48;1.77;;;1.67;;
1991;SDS011;997;48.448;8.924;2023-11-21T01:06:14;1.77;;;1.37;;
1991;SDS011;997;48.448;8.924;2023-11-21T01:08:43;4.03;;;1.30;;
1991;SDS011;997;48.448;8.924;2023-11-21T01:11:09;2.70;;;1.30;;
1991;SDS011;997;48.448;8.924;2023-11-21T01:13:40;3.87;;;1.60;;
1991;SDS011;997;48.448;8.924;2023-11-21T01:16:07;1.87;;;1.37;;
1991;SDS011;997;48.448;8.924;2023-11-21T01:18:34;3.93;;;1.23;;
1991;SDS011;997;48.448;8.924;2023-11-21T01:21:00;1.53;;;1.33;;
1991;SDS011;997;48.448;8.924;2023-11-21T01:23:26;1.73;;;0.97;;
1991;SDS011;997;48.448;8.924;2023-11-21T01:25:52;3.33;;;1.57;;
1991;SDS011;997;48.448;8.924;2023-11-21T01:28:18;1.00;;;0.90;;
1991;SDS011;997;48.448;8.924;2023-11-21T01:30:44;2.67;;;1.90;;
1991;SDS011;997;48.448;8.924;2023-11-21T01:33:11;1.77;;;1.07;;
1991;SDS011;997;48.448;8.924;2023-11-21T01:35:36;1.07;;;1.00;;
1991;SDS011;997;48.448;8.924;2023-11-21T01:38:02;2.23;;;0.83;;
1991;SDS011;997;48.448;8.924;2023-11-21T01:40:29;5.43;;;1.70;;
1991;SDS011;997;48.448;8.924;2023-11-21T01:42:55;1.27;;;1.00;;
1991;SDS011;997;48.448;8.924;2023-11-21T01:45:21;1.20;;;1.00;;
1991;SDS011;997;48.448;8.924;2023-11-21T01:47:47;1.57;;;1.00;;
1991;SDS011;997;48.448;8.924;2023-11-21T01:50:14;1.50;;;1.00;;
1991;SDS011;997;48.448;8.924;2023-11-21T01:52:42;3.87;;;1.10;;
1991;SDS011;997;48.448;8.924;2023-11-21T01:55:10;0.97;;;0.87;;
1991;SDS011;997;48.448;8.924;2023-11-21T01:57:39;0.90;;;0.77;;
1991;SDS011;997;48.448;8.924;2023-11-21T02:00:06;1.27;;;1.03;;
1991;SDS011;997;48.448;8.924;2023-11-21T02:02:42;2.50;;;1.10;;
1991;SDS011;997;48.448;8.924;2023-11-21T02:05:09;1.13;;;1.03;;
1991;SDS011;997;48.448;8.924;2023-11-21T02:07:39;1.20;;;0.70;;
1991;SDS011;997;48.448;8.924;2023-11-21T02:10:06;1.80;;;1.17;;
1991;SDS011;997;48.448;8.924;2023-11-21T02:12:32;2.03;;;0.83;;
1991;SDS011;997;48.448;8.924;2023-11-21T02:15:00;0.80;;;0.70;;
1991;SDS011;997;48.448;8.924;2023-11-21T02:17:27;1.17;;;0.90;;
1991;SDS011;997;48.448;8.924;2023-11-21T02:19:53;0.97;;;0.80;;
1991;SDS011;997;48.448;8.924;2023-11-21T02:22:19;0.87;;;0.70;;
1991;SDS011;997;48.448;8.924;2023-11-21T02:24:45;1.67;;;0.80;;
1991;SDS011;997;48.448;8.924;2023-11-21T02:27:12;0.77;;;0.67;;
1991;SDS011;997;48.448;8.924;2023-11-21T02:29:38;0.63;;;0.63;;
1991;SDS011;997;48.448;8.924;2023-11-21T02:32:04;0.70;;;0.50;;
1991;SDS011;997;48.448;8.924;2023-11-21T02:34:30;1.53;;;1.20;;
1991;SDS011;997;48.448;8.924;2023-11-21T02:36:56;2.13;;;1.00;;
1991;SDS011;997;48.448;8.924;2023-11-21T02:39:22;0.93;;;0.70;;
1991;SDS011;997;48.448;8.924;2023-11-21T02:41:48;1.10;;;0.70;;
1991;SDS011;997;48.448;8.924;2023-11-21T02:44:15;1.13;;;0.70;;
1991;SDS011;997;48.448;8.924;2023-11-21T02:46:41;1.17;;;0.70;;
1991;SDS011;997;48.448;8.924;2023-11-21T02:49:06;0.70;;;0.70;;
1991;SDS011;997;48.448;8.924;2023-11-21T02:51:32;1.53;;;0.77;;
1991;SDS011;997;48.448;8.924;2023-11-21T02:53:58;1.13;;;0.80;;
1991;SDS011;997;48.448;8.924;2023-11-21T02:56:26;0.90;;;0.70;;
1991;SDS011;997;48.448;8.924;2023-11-21T02:58:52;1.77;;;1.00;;
1991;SDS011;997;48.448;8.924;2023-11-21T03:01:20;1.87;;;0.73;;
1991;SDS011;997;48.448;8.924;2023-11-21T03:03:46;1.27;;;0.90;;
1991;SDS011;997;48.448;8.924;2023-11-21T03:06:12;1.53;;;0.80;;
1991;SDS011;997;48.448;8.924;2023-11-21T03:08:38;1.20;;;0.80;;
1991;SDS011;997;48.448;8.924;2023-11-21T03:11:04;1.57;;;0.77;;
1991;SDS011;997;48.448;8.924;2023-11-21T03:13:29;2.23;;;0.90;;
1991;SDS011;997;48.448;8.924;2023-11-21T03:15:55;1.43;;;0.93;;
1991;SDS011;997;48.448;8.924;2023-11-21T03:18:21;1.20;;;0.80;;
1991;SDS011;997;48.448;8.924;2023-11-21T03:20:51;1.50;;;0.80;;
1991;SDS011;997;48.448;8.924;2023-11-21T03:23:18;1.20;;;0.80;;
1991;SDS011;997;48.448;8.924;2023-11-21T03:25:44;4.80;;;1.57;;
1991;SDS011;997;48.448;8.924;2023-11-21T03:28:10;0.93;;;0.67;;
1991;SDS011;997;48.448;8.924;2023-11-21T03:30:36;0.87;;;0.80;;
1991;SDS011;997;48.448;8.924;2023-11-21T03:33:01;0.90;;;0.70;;
1991;SDS011;997;48.448;8.924;2023-11-21T03:35:27;3.60;;;1.07;;
1991;SDS011;997;48.448;8.924;2023-11-21T03:37:53;0.87;;;0.80;;
1991;SDS011;997;48.448;8.924;2023-11-21T03:40:19;0.60;;;0.60;;
1991;SDS011;997;48.448;8.924;2023-11-21T03:42:46;1.80;;;0.70;;
1991;SDS011;997;48.448;8.924;2023-11-21T03:45:12;0.67;;;0.67;;
1991;SDS011;997;48.448;8.924;2023-11-21T03:47:39;1.63;;;0.80;;
1991;SDS011;997;48.448;8.924;2023-11-21T03:50:06;0.60;;;0.60;;
1991;SDS011;997;48.448;8.924;2023-11-21T03:52:33;0.80;;;0.60;;
1991;SDS011;997;48.448;8.924;2023-11-21T03:55:00;1.17;;;0.70;;
1991;SDS011;997;48.448;8.924;2023-11-21T03:57:26;0.90;;;0.80;;
1991;SDS011;997;48.448;8.924;2023-11-21T03:59:52;1.50;;;0.80;;
1991;SDS011;997;48.448;8.924;2023-11-21T04:02:18;1.43;;;1.00;;
1991;SDS011;997;48.448;8.924;2023-11-21T04:04:44;0.60;;;0.60;;
1991;SDS011;997;48.448;8.924;2023-11-21T04:07:10;0.70;;;0.70;;
1991;SDS011;997;48.448;8.924;2023-11-21T04:09:38;0.80;;;0.60;;
1991;SDS011;997;48.448;8.924;2023-11-21T04:12:04;0.70;;;0.60;;
1991;SDS011;997;48.448;8.924;2023-11-21T04:14:30;0.90;;;0.90;;
1991;SDS011;997;48.448;8.924;2023-11-21T04:16:56;0.80;;;0.70;;
1991;SDS011;997;48.448;8.924;2023-11-21T04:19:22;0.80;;;0.60;;
1991;SDS011;997;48.448;8.924;2023-11-21T04:21:48;0.67;;;0.67;;
1991;SDS011;997;48.448;8.924;2023-11-21T04:24:14;1.60;;;0.70;;
1991;SDS011;997;48.448;8.924;2023-11-21T04:26:40;0.70;;;0.70;;
1991;SDS011;997;48.448;8.924;2023-11-21T04:29:06;1.03;;;0.93;;
1991;SDS011;997;48.448;8.924;2023-11-21T04:31:31;1.83;;;1.03;;
1991;SDS011;997;48.448;8.924;2023-11-21T04:33:57;1.03;;;0.80;;
1991;SDS011;997;48.448;8.924;2023-11-21T04:36:23;1.13;;;1.07;;
1991;SDS011;997;48.448;8.924;2023-11-21T04:38:49;0.90;;;0.80;;
1991;SDS011;997;48.448;8.924;2023-11-21T04:41:14;2.10;;;0.90;;
1991;SDS011;997;48.448;8.924;2023-11-21T04:43:41;0.77;;;0.60;;
1991;SDS011;997;48.448;8.924;2023-11-21T04:46:07;0.90;;;0.90;;
1991;SDS011;997;48.448;8.924;2023-11-21T04:48:33;0.80;;;0.80;;
1991;SDS011;997;48.448;8.924;2023-11-21T04:50:59;0.83;;;0.50;;
1991;SDS011;997;48.448;8.924;2023-11-21T04:53:25;1.10;;;1.10;;
1991;SDS011;997;48.448;8.924;2023-11-21T04:55:50;2.50;;;0.90;;
1991;SDS011;997;48.448;8.924;2023-11-21T04:58:16;1.40;;;1.30;;
1991;SDS011;997;48.448;8.924;2023-11-21T05:00:42;0.80;;;0.77;;
1991;SDS011;997;48.448;8.924;2023-11-21T05:03:09;1.20;;;0.90;;
1991;SDS011;997;48.448;8.924;2023-11-21T05:05:34;1.47;;;0.90;;
1991;SDS011;997;48.448;8.924;2023-11-21T05:08:00;1.20;;;0.70;;
1991;SDS011;997;48.448;8.924;2023-11-21T05:10:26;0.97;;;0.73;;
1991;SDS011;997;48.448;8.924;2023-11-21T05:12:52;1.10;;;0.77;;
1991;SDS011;997;48.448;8.924;2023-11-21T05:15:18;0.70;;;0.60;;
1991;SDS011;997;48.448;8.924;2023-11-21T05:17:44;1.63;;;0.80;;
1991;SDS011;997;48.448;8.924;2023-11-21T05:20:10;0.97;;;0.87;;
1991;SDS011;997;48.448;8.924;2023-11-21T05:22:38;0.67;;;0.67;;
1991;SDS011;997;48.448;8.924;2023-11-21T05:25:04;1.20;;;1.10;;
1991;SDS011;997;48.448;8.924;2023-11-21T05:27:30;1.27;;;0.80;;
1991;SDS011;997;48.448;8.924;2023-11-21T05:29:56;1.10;;;0.83;;
1991;SDS011;997;48.448;8.924;2023-11-21T05:32:23;1.20;;;0.90;;
1991;SDS011;997;48.448;8.924;2023-11-21T05:34:52;0.90;;;0.73;;
1991;SDS011;997;48.448;8.924;2023-11-21T05:37:17;0.63;;;0.57;;
1991;SDS011;997;48.448;8.924;2023-11-21T05:39:43;1.40;;;0.90;;
1991;SDS011;997;48.448;8.924;2023-11-21T05:42:09;1.10;;;0.90;;
1991;SDS011;997;48.448;8.924;2023-11-21T05:44:36;0.60;;;0.60;;
1991;SDS011;997;48.448;8.924;2023-11-21T05:47:02;1.17;;;0.97;;
1991;SDS011;997;48.448;8.924;2023-11-21T05:49:28;0.90;;;0.90;;
1991;SDS011;997;48.448;8.924;2023-11-21T05:51:56;1.83;;;1.00;;
1991;SDS011;997;48.448;8.924;2023-11-21T05:54:21;1.30;;;1.20;;
1991;SDS011;997;48.448;8.924;2023-11-21T05:56:48;1.37;;;0.87;;
1991;SDS011;997;48.448;8.924;2023-11-21T05:59:14;1.10;;;1.00;;
1991;SDS011;997;48.448;8.924;2023-11-21T06:01:40;3.23;;;0.93;;
1991;SDS011;997;48.448;8.924;2023-11-21T06:04:06;1.20;;;0.90;;
1991;SDS011;997;48.448;8.924;2023-11-21T06:06:33;1.97;;;1.40;;
1991;SDS011;997;48.448;8.924;2023-11-21T06:08:59;1.00;;;0.90;;
1991;SDS011;997;48.448;8.924;2023-11-21T06:11:25;1.20;;;0.70;;
1991;SDS011;997;48.448;8.924;2023-11-21T06:13:50;1.10;;;1.00;;
1991;SDS011;997;48.448;8.924;2023-11-21T06:16:18;1.20;;;1.10;;
1991;SDS011;997;48.448;8.924;2023-11-21T06:18:47;1.00;;;0.87;;
1991;SDS011;997;48.448;8.924;2023-11-21T06:21:13;1.70;;;1.03;;
1991;SDS011;997;48.448;8.924;2023-11-21T06:23:38;1.43;;;0.90;;
1991;SDS011;997;48.448;8.924;2023-11-21T06:26:04;0.90;;;0.70;;
1991;SDS011;997;48.448;8.924;2023-11-21T06:28:31;1.23;;;0.80;;
1991;SDS011;997;48.448;8.924;2023-11-21T06:30:57;1.20;;;1.10;;
1991;SDS011;997;48.448;8.924;2023-11-21T06:33:23;1.87;;;1.20;;
1991;SDS011;997;48.448;8.924;2023-11-21T06:35:52;2.30;;;1.10;;
1991;SDS011;997;48.448;8.924;2023-11-21T06:38:18;1.37;;;1.03;;
1991;SDS011;997;48.448;8.924;2023-11-21T06:40:44;2.07;;;1.23;;
1991;SDS011;997;48.448;8.924;2023-11-21T06:43:10;1.73;;;1.33;;
1991;SDS011;997;48.448;8.924;2023-11-21T06:45:36;1.47;;;1.37;;
1991;SDS011;997;48.448;8.924;2023-11-21T06:48:02;1.97;;;1.73;;
1991;SDS011;997;48.448;8.924;2023-11-21T06:50:27;2.53;;;1.60;;
1991;SDS011;997;48.448;8.924;2023-11-21T06:52:53;2.40;;;2.20;;
1991;SDS011;997;48.448;8.924;2023-11-21T06:55:19;3.10;;;1.83;;
1991;SDS011;997;48.448;8.924;2023-11-21T06:57:44;1.53;;;1.43;;
1991;SDS011;997;48.448;8.924;2023-11-21T07:00:11;1.70;;;1.37;;
1991;SDS011;997;48.448;8.924;2023-11-21T07:02:38;2.27;;;1.63;;
1991;SDS011;997;48.448;8.924;2023-11-21T07:05:04;2.23;;;2.03;;
1991;SDS011;997;48.448;8.924;2023-11-21T07:07:30;1.53;;;1.43;;
1991;SDS011;997;48.448;8.924;2023-11-21T07:09:56;1.67;;;1.57;;
1991;SDS011;997;48.448;8.924;2023-11-21T07:12:22;1.93;;;1.83;;
1991;SDS011;997;48.448;8.924;2023-11-21T07:14:48;3.00;;;2.40;;
1991;SDS011;997;48.448;8.924;2023-11-21T07:17:14;1.50;;;1.40;;
1991;SDS011;997;48.448;8.924;2023-11-21T07:19:42;2.83;;;1.27;;
1991;SDS011;997;48.448;8.924;2023-11-21T07:22:08;1.43;;;1.27;;
1991;SDS011;997;48.448;8.924;2023-11-21T07:24:34;1.37;;;1.27;;
1991;SDS011;997;48.448;8.924;2023-11-21T07:27:00;2.50;;;1.50;;
1991;SDS011;997;48.448;8.924;2023-11-21T07:29:26;2.03;;;1.50;;
1991;SDS011;997;48.448;8.924;2023-11-21T07:31:52;1.60;;;1.37;;
1991;SDS011;997;48.448;8.924;2023-11-21T07:34:19;2.20;;;1.70;;
1991;SDS011;997;48.448;8.924;2023-11-21T07:36:46;3.23;;;1.90;;
1991;SDS011;997;48.448;8.924;2023-11-21T07:39:11;4.40;;;2.70;;
1991;SDS011;997;48.448;8.924;2023-11-21T07:41:37;2.63;;;2.03;;
1991;SDS011;997;48.448;8.924;2023-11-21T07:44:10;2.60;;;2.40;;
1991;SDS011;997;48.448;8.924;2023-11-21T07:46:35;2.73;;;2.53;;
1991;SDS011;997;48.448;8.924;2023-11-21T07:49:01;3.43;;;2.60;;
1991;SDS011;997;48.448;8.924;2023-11-21T07:51:27;2.63;;;2.43;;
1991;SDS011;997;48.448;8.924;2023-11-21T07:53:52;2.90;;;2.20;;
1991;SDS011;997;48.448;8.924;2023-11-21T07:56:18;2.60;;;2.40;;
1991;SDS011;997;48.448;8.924;2023-11-21T07:58:43;2.10;;;1.90;;
1991;SDS011;997;48.448;8.924;2023-11-21T08:01:09;2.70;;;2.10;;
1991;SDS011;997;48.448;8.924;2023-11-21T08:03:36;2.47;;;2.10;;
1991;SDS011;997;48.448;8.924;2023-11-21T08:06:02;2.60;;;2.40;;
1991;SDS011;997;48.448;8.924;2023-11-21T08:08:30;1.73;;;1.63;;
1991;SDS011;997;48.448;8.924;2023-11-21T08:10:57;1.70;;;1.50;;
1991;SDS011;997;48.448;8.924;2023-11-21T08:13:26;1.33;;;1.20;;
1991;SDS011;997;48.448;8.924;2023-11-21T08:15:59;2.60;;;1.30;;
1991;SDS011;997;48.448;8.924;2023-11-21T08:18:28;1.23;;;1.13;;
1991;SDS011;997;48.448;8.924;2023-11-21T08:20:54;1.33;;;1.23;;
1991;SDS011;997;48.448;8.924;2023-11-21T08:23:21;1.77;;;1.33;;
1991;SDS011;997;48.448;8.924;2023-11-21T08:25:53;1.03;;;0.93;;
1991;SDS011;997;48.448;8.924;2023-11-21T08:28:19;1.87;;;1.13;;
1991;SDS011;997;48.448;8.924;2023-11-21T08:30:47;1.00;;;1.00;;
1991;SDS011;997;48.448;8.924;2023-11-21T08:33:13;1.30;;;1.20;;
1991;SDS011;997;48.448;8.924;2023-11-21T08:35:39;1.90;;;1.23;;
1991;SDS011;997;48.448;8.924;2023-11-21T08:38:04;2.27;;;1.43;;
1991;SDS011;997;48.448;8.924;2023-11-21T08:40:30;1.57;;;1.20;;
1991;SDS011;997;48.448;8.924;2023-11-21T08:42:56;1.67;;;1.57;;
1991;SDS011;997;48.448;8.924;2023-11-21T08:45:24;1.20;;;1.10;;
1991;SDS011;997;48.448;8.924;2023-11-21T08:47:50;1.90;;;1.10;;
1991;SDS011;997;48.448;8.924;2023-11-21T08:50:16;1.43;;;1.33;;
1991;SDS011;997;48.448;8.924;2023-11-21T08:52:43;1.17;;;1.07;;
1991;SDS011;997;48.448;8.924;2023-11-21T08:55:11;4.80;;;1.30;;
1991;SDS011;997;48.448;8.924;2023-11-21T08:57:40;2.40;;;1.33;;
1991;SDS011;997;48.448;8.924;2023-11-21T09:00:08;1.57;;;1.20;;
1991;SDS011;997;48.448;8.924;2023-11-21T09:02:37;1.33;;;1.23;;
1991;SDS011;997;48.448;8.924;2023-11-21T09:05:04;1.67;;;1.37;;
1991;SDS011;997;48.448;8.924;2023-11-21T09:07:30;1.40;;;1.30;;
1991;SDS011;997;48.448;8.924;2023-11-21T09:09:56;2.10;;;1.73;;
1991;SDS011;997;48.448;8.924;2023-11-21T09:12:22;3.67;;;3.03;;
1991;SDS011;997;48.448;8.924;2023-11-21T09:14:49;2.53;;;2.00;;
1991;SDS011;997;48.448;8.924;2023-11-21T09:17:16;3.40;;;1.60;;
1991;SDS011;997;48.448;8.924;2023-11-21T09:19:42;2.33;;;2.13;;
1991;SDS011;997;48.448;8.924;2023-11-21T09:22:10;1.37;;;1.27;;
1991;SDS011;997;48.448;8.924;2023-11-21T09:24:36;1.67;;;1.57;;
1991;SDS011;997;48.448;8.924;2023-11-21T09:27:02;2.57;;;1.53;;
1991;SDS011;997;48.448;8.924;2023-11-21T09:29:30;2.10;;;1.57;;
1991;SDS011;997;48.448;8.924;2023-11-21T09:31:56;3.43;;;1.90;;
1991;SDS011;997;48.448;8.924;2023-11-21T09:34:24;3.13;;;1.37;;
1991;SDS011;997;48.448;8.924;2023-11-21T09:36:50;1.77;;;1.43;;
1991;SDS011;997;48.448;8.924;2023-11-21T09:39:17;2.07;;;1.60;;
1991;SDS011;997;48.448;8.924;2023-11-21T09:44:18;2.10;;;2.00;;
1991;SDS011;997;48.448;8.924;2023-11-21T09:46:45;5.10;;;2.40;;
1991;SDS011;997;48.448;8.924;2023-11-21T09:49:18;3.37;;;3.07;;
1991;SDS011;997;48.448;8.924;2023-11-21T09:51:46;3.40;;;3.10;;
1991;SDS011;997;48.448;8.924;2023-11-21T09:54:13;5.10;;;3.57;;
1991;SDS011;997;48.448;8.924;2023-11-21T09:56:42;2.57;;;2.37;;
1991;SDS011;997;48.448;8.924;2023-11-21T09:59:10;3.50;;;2.80;;
1991;SDS011;997;48.448;8.924;2023-11-21T10:01:40;3.17;;;2.60;;
1991;SDS011;997;48.448;8.924;2023-11-21T10:04:07;8.40;;;2.77;;
1991;SDS011;997;48.448;8.924;2023-11-21T10:06:39;2.83;;;2.63;;
1991;SDS011;997;48.448;8.924;2023-11-21T10:09:11;1.97;;;1.87;;
1991;SDS011;997;48.448;8.924;2023-11-21T10:11:42;2.10;;;1.90;;
1991;SDS011;997;48.448;8.924;2023-11-21T10:14:11;3.70;;;2.93;;
1991;SDS011;997;48.448;8.924;2023-11-21T10:16:39;2.47;;;2.27;;
1991;SDS011;997;48.448;8.924;2023-11-21T10:19:05;1.73;;;1.63;;
1991;SDS011;997;48.448;8.924;2023-11-21T10:21:34;3.83;;;3.57;;
1991;SDS011;997;48.448;8.924;2023-11-21T10:24:00;2.50;;;2.30;;
1991;SDS011;997;48.448;8.924;2023-11-21T10:26:28;1.70;;;1.60;;
1991;SDS011;997;48.448;8.924;2023-11-21T10:29:00;2.13;;;2.03;;
1991;SDS011;997;48.448;8.924;2023-11-21T10:31:30;2.93;;;2.70;;
1991;SDS011;997;48.448;8.924;2023-11-21T10:34:18;2.07;;;1.87;;
1991;SDS011;997;48.448;8.924;2023-11-21T10:36:45;3.07;;;2.00;;
1991;SDS011;997;48.448;8.924;2023-11-21T10:39:17;2.27;;;2.13;;
1991;SDS011;997;48.448;8.924;2023-11-21T10:41:48;1.90;;;1.80;;
1991;SDS011;997;48.448;8.924;2023-11-21T10:44:16;2.60;;;2.37;;
1991;SDS011;997;48.448;8.924;2023-11-21T10:46:50;3.00;;;1.80;;
1991;SDS011;997;48.448;8.924;2023-11-21T10:49:20;1.47;;;1.33;;
1991;SDS011;997;48.448;8.924;2023-11-21T10:51:46;1.70;;;1.60;;
1991;SDS011;997;48.448;8.924;2023-11-21T10:54:16;1.83;;;1.73;;
1991;SDS011;997;48.448;8.924;2023-11-21T10:56:46;1.40;;;1.30;;
1991;SDS011;997;48.448;8.924;2023-11-21T10:59:16;1.80;;;1.50;;
1991;SDS011;997;48.448;8.924;2023-11-21T11:01:45;2.10;;;1.90;;
1991;SDS011;997;48.448;8.924;2023-11-21T11:04:12;2.00;;;1.90;;
1991;SDS011;997;48.448;8.924;2023-11-21T11:06:44;1.40;;;1.30;;
1991;SDS011;997;48.448;8.924;2023-11-21T11:09:16;1.37;;;1.27;;
1991;SDS011;997;48.448;8.924;2023-11-21T11:11:42;1.90;;;1.70;;
1991;SDS011;997;48.448;8.924;2023-11-21T11:14:11;2.70;;;2.50;;
1991;SDS011;997;48.448;8.924;2023-11-21T11:16:41;3.20;;;1.80;;
1991;SDS011;997;48.448;8.924;2023-11-21T11:19:08;1.50;;;1.40;;
1991;SDS011;997;48.448;8.924;2023-11-21T11:38:13;1.70;;;1.60;;
1991;SDS011;997;48.448;8.924;2023-11-21T11:40:40;2.03;;;1.93;;
1991;SDS011;997;48.448;8.924;2023-11-21T11:43:07;1.50;;;1.37;;
1991;SDS011;997;48.448;8.924;2023-11-21T11:45:33;1.70;;;1.53;;
1991;SDS011;997;48.448;8.924;2023-11-21T11:48:01;2.00;;;1.90;;
1991;SDS011;997;48.448;8.924;2023-11-21T11:50:28;6.10;;;4.17;;
1991;SDS011;997;48.448;8.924;2023-11-21T11:52:55;3.90;;;3.50;;
1991;SDS011;997;48.448;8.924;2023-11-21T11:55:36;8.00;;;4.03;;
1991;SDS011;997;48.448;8.924;2023-11-21T11:58:04;4.37;;;3.60;;
1991;SDS011;997;48.448;8.924;2023-11-21T12:02:58;5.77;;;5.27;;
1991;SDS011;997;48.448;8.924;2023-11-21T12:05:28;3.10;;;2.60;;
1991;SDS011;997;48.448;8.924;2023-11-21T12:07:58;2.00;;;1.77;;
1991;SDS011;997;48.448;8.924;2023-11-21T12:12:56;1.73;;;1.63;;
1991;SDS011;997;48.448;8.924;2023-11-21T12:15:25;5.63;;;3.00;;
1991;SDS011;997;48.448;8.924;2023-11-21T12:17:52;6.80;;;6.40;;
1991;SDS011;997;48.448;8.924;2023-11-21T12:20:18;3.97;;;3.67;;
1991;SDS011;997;48.448;8.924;2023-11-21T12:22:46;3.13;;;2.60;;
1991;SDS011;997;48.448;8.924;2023-11-21T12:25:20;3.13;;;1.73;;
1991;SDS011;997;48.448;8.924;2023-11-21T12:27:48;4.23;;;3.93;;
1991;SDS011;997;48.448;8.924;2023-11-21T12:30:15;1.70;;;1.60;;
1991;SDS011;997;48.448;8.924;2023-11-21T12:32:47;19.50;;;8.73;;
1991;SDS011;997;48.448;8.924;2023-11-21T12:35:15;25.53;;;14.63;;
1991;SDS011;997;48.448;8.924;2023-11-21T12:37:44;10.60;;;9.50;;
1991;SDS011;997;48.448;8.924;2023-11-21T12:40:11;6.00;;;4.87;;
1991;SDS011;997;48.448;8.924;2023-11-21T12:42:51;2.87;;;2.63;;
1991;SDS011;997;48.448;8.924;2023-11-21T12:45:22;3.70;;;3.40;;
1991;SDS011;997;48.448;8.924;2023-11-21T12:47:50;7.80;;;7.00;;
1991;SDS011;997;48.448;8.924;2023-11-21T12:50:21;6.50;;;5.90;;
1991;SDS011;997;48.448;8.924;2023-11-21T12:52:51;3.37;;;2.90;;
1991;SDS011;997;48.448;8.924;2023-11-21T12:55:21;3.40;;;3.10;;
1991;SDS011;997;48.448;8.924;2023-11-21T12:57:55;1.57;;;1.47;;
1991;SDS011;997;48.448;8.924;2023-11-21T13:00:34;2.37;;;1.70;;
1991;SDS011;997;48.448;8.924;2023-11-21T13:03:02;2.20;;;2.10;;
1991;SDS011;997;48.448;8.924;2023-11-21T13:05:30;3.43;;;2.57;;
1991;SDS011;997;48.448;8.924;2023-11-21T13:07:59;2.50;;;2.03;;
1991;SDS011;997;48.448;8.924;2023-11-21T13:10:28;3.63;;;2.73;;
1991;SDS011;997;48.448;8.924;2023-11-21T13:12:59;1.40;;;1.30;;
1991;SDS011;997;48.448;8.924;2023-11-21T13:15:29;1.67;;;1.57;;
1991;SDS011;997;48.448;8.924;2023-11-21T13:17:56;1.90;;;1.80;;
1991;SDS011;997;48.448;8.924;2023-11-21T13:20:23;2.20;;;2.00;;
1991;SDS011;997;48.448;8.924;2023-11-21T13:22:52;2.23;;;2.03;;
1991;SDS011;997;48.448;8.924;2023-11-21T13:25:22;2.50;;;2.30;;
1991;SDS011;997;48.448;8.924;2023-11-21T13:27:49;3.30;;;3.03;;
1991;SDS011;997;48.448;8.924;2023-11-21T13:30:16;3.63;;;2.87;;
1991;SDS011;997;48.448;8.924;2023-11-21T13:32:45;2.97;;;2.67;;
1991;SDS011;997;48.448;8.924;2023-11-21T13:35:11;2.50;;;2.30;;
1991;SDS011;997;48.448;8.924;2023-11-21T13:37:46;3.47;;;3.17;;
1991;SDS011;997;48.448;8.924;2023-11-21T13:40:19;3.20;;;3.00;;
1991;SDS011;997;48.448;8.924;2023-11-21T13:42:50;4.87;;;4.47;;
1991;SDS011;997;48.448;8.924;2023-11-21T13:45:23;5.07;;;4.67;;
1991;SDS011;997;48.448;8.924;2023-11-21T13:47:50;11.77;;;10.87;;
1991;SDS011;997;48.448;8.924;2023-11-21T13:50:20;8.70;;;8.00;;
1991;SDS011;997;48.448;8.924;2023-11-21T13:52:50;6.13;;;5.63;;
1991;SDS011;997;48.448;8.924;2023-11-21T13:55:18;7.53;;;6.00;;
1991;SDS011;997;48.448;8.924;2023-11-21T13:57:44;8.33;;;6.10;;
1991;SDS011;997;48.448;8.924;2023-11-21T14:00:14;12.37;;;10.83;;
1991;SDS011;997;48.448;8.924;2023-11-21T14:03:07;14.23;;;12.00;;
1991;SDS011;997;48.448;8.924;2023-11-21T14:05:42;8.23;;;7.47;;
1991;SDS011;997;48.448;8.924;2023-11-21T14:08:09;4.53;;;3.87;;
1991;SDS011;997;48.448;8.924;2023-11-21T14:10:37;4.00;;;3.70;;
1991;SDS011;997;48.448;8.924;2023-11-21T14:13:08;5.30;;;4.80;;
1991;SDS011;997;48.448;8.924;2023-11-21T14:15:35;5.73;;;5.10;;
1991;SDS011;997;48.448;8.924;2023-11-21T14:18:07;3.43;;;3.20;;
1991;SDS011;997;48.448;8.924;2023-11-21T14:20:35;3.40;;;3.10;;
1991;SDS011;997;48.448;8.924;2023-11-21T14:23:02;3.63;;;3.17;;
1991;SDS011;997;48.448;8.924;2023-11-21T14:25:31;4.20;;;3.80;;
1991;SDS011;997;48.448;8.924;2023-11-21T14:27:57;4.47;;;4.07;;
1991;SDS011;997;48.448;8.924;2023-11-21T14:30:23;5.30;;;4.80;;
1991;SDS011;997;48.448;8.924;2023-11-21T14:32:50;5.63;;;5.10;;
1991;SDS011;997;48.448;8.924;2023-11-21T15:01:02;4.47;;;4.17;;
1991;SDS011;997;48.448;8.924;2023-11-21T15:03:29;3.40;;;3.10;;
1991;SDS011;997;48.448;8.924;2023-11-21T15:06:01;2.60;;;2.40;;
1991;SDS011;997;48.448;8.924;2023-11-21T15:08:52;2.37;;;2.17;;
1991;SDS011;997;48.448;8.924;2023-11-21T15:11:40;1.10;;;1.00;;
1991;SDS011;997;48.448;8.924;2023-11-21T15:14:06;1.10;;;1.00;;
1991;SDS011;997;48.448;8.924;2023-11-21T15:16:34;0.90;;;0.90;;
1991;SDS011;997;48.448;8.924;2023-11-21T15:19:11;5.83;;;5.23;;
1991;SDS011;997;48.448;8.924;2023-11-21T15:21:43;2.30;;;0.73;;
1991;SDS011;997;48.448;8.924;2023-11-21T15:24:10;1.23;;;1.10;;
1991;SDS011;997;48.448;8.924;2023-11-21T15:26:36;1.70;;;1.60;;
1991;SDS011;997;48.448;8.924;2023-11-21T15:29:02;1.50;;;1.40;;
1991;SDS011;997;48.448;8.924;2023-11-21T15:31:28;1.47;;;1.30;;
1991;SDS011;997;48.448;8.924;2023-11-21T15:33:53;1.93;;;1.70;;
1991;SDS011;997;48.448;8.924;2023-11-21T15:36:24;1.17;;;1.07;;
1991;SDS011;997;48.448;8.924;2023-11-21T15:38:49;2.33;;;1.67;;
1991;SDS011;997;48.448;8.924;2023-11-21T15:41:15;3.40;;;2.50;;
1991;SDS011;997;48.448;8.924;2023-11-21T15:43:40;5.27;;;4.77;;
1991;SDS011;997;48.448;8.924;2023-11-21T15:46:06;5.73;;;5.23;;
1991;SDS011;997;48.448;8.924;2023-11-21T15:48:36;6.27;;;5.77;;
1991;SDS011;997;48.448;8.924;2023-11-21T15:51:05;5.23;;;4.80;;
1991;SDS011;997;48.448;8.924;2023-11-21T15:53:35;5.00;;;4.60;;
1991;SDS011;997;48.448;8.924;2023-11-21T15:56:01;6.63;;;6.03;;
1991;SDS011;997;48.448;8.924;2023-11-21T15:58:29;5.00;;;4.50;;
1991;SDS011;997;48.448;8.924;2023-11-21T16:00:54;8.77;;;7.87;;
1991;SDS011;997;48.448;8.924;2023-11-21T16:03:22;3.53;;;3.27;;
1991;SDS011;997;48.448;8.924;2023-11-21T16:05:48;4.50;;;4.10;;
1991;SDS011;997;48.448;8.924;2023-11-21T16:08:14;3.20;;;3.00;;
1991;SDS011;997;48.448;8.924;2023-11-21T16:10:40;4.47;;;3.33;;
1991;SDS011;997;48.448;8.924;2023-11-21T16:13:05;3.63;;;3.40;;
1991;SDS011;997;48.448;8.924;2023-11-21T16:15:33;3.50;;;3.30;;
1991;SDS011;997;48.448;8.924;2023-11-21T16:17:59;4.97;;;4.57;;
1991;SDS011;997;48.448;8.924;2023-11-21T16:20:24;6.63;;;6.03;;